createdAt,value
2019-01-10T00:01:46.695Z,93779.20
2019-01-10T00:04:14.106Z,93788.27
2019-01-10T00:06:41.479Z,93783.04
2019-01-10T00:09:09.039Z,93792.34
2019-01-10T00:11:36.431Z,93794.22
2019-01-10T00:14:07.666Z,93792.38
2019-01-10T00:16:35.084Z,93798.66
2019-01-10T00:19:02.441Z,93797.86
2019-01-10T00:21:29.867Z,93805.23
2019-01-10T00:23:57.241Z,93807.35
2019-01-10T00:26:24.634Z,93808.80
2019-01-10T00:28:52.054Z,93806.81
2019-01-10T00:31:19.411Z,93810.75
2019-01-10T00:33:46.866Z,93800.34
2019-01-10T00:36:14.231Z,93806.33
2019-01-10T00:38:41.590Z,93811.37
2019-01-10T00:41:08.975Z,93819.91
2019-01-10T00:43:36.381Z,93819.09
2019-01-10T00:46:03.849Z,93816.67
2019-01-10T00:48:31.350Z,93820.14
2019-01-10T00:50:59.051Z,93823.77
2019-01-10T00:53:26.573Z,93830.99
2019-01-10T00:55:54.096Z,93827.30
2019-01-10T00:58:21.487Z,93830.78
2019-01-10T01:00:48.888Z,93831.73
2019-01-10T01:03:16.273Z,93840.19
2019-01-10T01:05:43.608Z,93840.05
2019-01-10T01:08:11.079Z,93839.93
2019-01-10T01:10:38.454Z,93847.90
2019-01-10T01:13:06.227Z,93854.08
2019-01-10T01:15:33.602Z,93854.78
2019-01-10T01:18:01.025Z,93852.31
2019-01-10T01:20:28.459Z,93857.20
2019-01-10T01:22:55.854Z,93859.67
2019-01-10T01:25:23.322Z,93856.07
2019-01-10T01:27:50.732Z,93856.30
2019-01-10T01:30:19.426Z,93862.25
2019-01-10T01:32:46.788Z,93869.86
2019-01-10T01:35:14.581Z,93870.06
2019-01-10T01:37:42.002Z,93875.91
2019-01-10T01:40:09.967Z,93878.12
2019-01-10T01:42:37.462Z,93889.96
2019-01-10T01:45:04.915Z,93889.03
2019-01-10T01:47:32.308Z,93891.14
2019-01-10T01:49:59.691Z,93891.14
2019-01-10T01:52:30.205Z,93897.44
2019-01-10T01:54:57.553Z,93893.01
2019-01-10T01:57:24.947Z,93894.19
2019-01-10T01:59:52.356Z,93894.87
2019-01-10T02:02:19.707Z,93899.81
2019-01-10T02:04:47.519Z,93903.77
2019-01-10T02:07:14.884Z,93906.09
2019-01-10T02:09:42.388Z,93905.52
2019-01-10T02:12:09.767Z,93909.15
2019-01-10T02:14:37.146Z,93914.04
2019-01-10T02:17:04.508Z,93906.22
2019-01-10T02:19:31.882Z,93913.34
2019-01-10T02:21:59.263Z,93909.27
2019-01-10T02:24:26.697Z,93914.27
2019-01-10T02:26:54.267Z,93918.48
2019-01-10T02:29:21.685Z,93920.14
2019-01-10T02:31:49.078Z,93923.63
2019-01-10T02:34:16.439Z,93926.09
2019-01-10T02:36:43.838Z,93925.74
2019-01-10T02:39:11.224Z,93922.70
2019-01-10T02:41:38.603Z,93916.27
2019-01-10T02:44:06.071Z,93918.37
2019-01-10T02:46:33.531Z,93913.00
2019-01-10T02:49:00.887Z,93916.85
2019-01-10T02:51:28.318Z,93908.45
2019-01-10T02:53:55.781Z,93907.99
2019-01-10T02:56:23.599Z,93918.28
2019-01-10T02:58:50.946Z,93916.84
2019-01-10T03:01:18.350Z,93913.82
2019-01-10T03:03:45.727Z,93911.03
2019-01-10T03:06:13.059Z,93916.17
2019-01-10T03:08:40.432Z,93921.53
2019-01-10T03:11:07.847Z,93911.03
2019-01-10T03:13:36.851Z,93911.25
2019-01-10T03:16:04.603Z,93916.64
2019-01-10T03:18:31.953Z,93914.64
2019-01-10T03:20:59.339Z,93915.71
2019-01-10T03:23:26.815Z,93913.14
2019-01-10T03:25:54.210Z,93914.53
2019-01-10T03:28:21.682Z,93912.18
2019-01-10T03:30:49.124Z,93910.32
2019-01-10T03:33:16.505Z,93906.35
2019-01-10T03:35:44.078Z,93912.53
2019-01-10T03:38:11.450Z,93903.42
2019-01-10T03:40:38.798Z,93904.71
2019-01-10T03:43:06.204Z,93907.53
2019-01-10T03:45:33.551Z,93907.74
2019-01-10T03:48:00.922Z,93907.28
2019-01-10T03:50:28.272Z,93908.20
2019-01-10T03:52:55.640Z,93908.44
2019-01-10T03:55:23.053Z,93911.02
2019-01-10T03:57:50.515Z,93914.62
2019-01-10T04:00:19.201Z,93917.80
2019-01-10T04:02:46.616Z,93913.67
2019-01-10T04:05:14.060Z,93914.50
2019-01-10T04:07:41.436Z,93914.04
2019-01-10T04:10:09.460Z,93910.53
2019-01-10T04:12:37.131Z,93909.93
2019-01-10T04:15:04.594Z,93909.81
2019-01-10T04:17:31.978Z,93906.58
2019-01-10T04:19:59.340Z,93902.56
2019-01-10T04:22:26.679Z,93910.18
2019-01-10T04:24:54.107Z,93911.72
2019-01-10T04:27:21.642Z,93910.30
2019-01-10T04:29:49.029Z,93905.87
2019-01-10T04:32:16.442Z,93907.27
2019-01-10T04:34:43.835Z,93907.98
2019-01-10T04:37:11.199Z,93913.47
2019-01-10T04:39:38.583Z,93913.58
2019-01-10T04:42:08.406Z,93910.18
2019-01-10T04:44:35.762Z,93902.11
2019-01-10T04:47:03.159Z,93909.13
2019-01-10T04:49:30.529Z,93908.45
2019-01-10T04:51:57.896Z,93916.16
2019-01-10T04:54:25.324Z,93921.50
2019-01-10T04:56:53.089Z,93921.75
2019-01-10T04:59:20.487Z,93917.18
2019-01-10T05:01:47.839Z,93922.69
2019-01-10T05:04:15.763Z,93925.04
2019-01-10T05:06:43.130Z,93929.22
2019-01-10T05:09:10.559Z,93926.80
2019-01-10T05:11:37.930Z,93925.26
2019-01-10T05:14:05.313Z,93931.23
2019-01-10T05:16:32.811Z,93929.47
2019-01-10T05:19:00.190Z,93940.80
2019-01-10T05:21:27.549Z,93936.38
2019-01-10T05:23:54.944Z,93933.23
2019-01-10T05:26:22.287Z,93942.33
2019-01-10T05:28:49.636Z,93934.84
2019-01-10T05:31:17.034Z,93940.34
2019-01-10T05:33:44.494Z,93941.16
2019-01-10T05:36:11.832Z,93947.95
2019-01-10T05:38:39.226Z,93944.45
2019-01-10T05:41:06.583Z,93948.41
2019-01-10T05:43:33.974Z,93946.55
2019-01-10T05:46:01.362Z,93950.63
2019-01-10T05:48:28.711Z,93948.41
2019-01-10T05:50:56.122Z,93950.98
2019-01-10T05:53:23.522Z,93956.36
2019-01-10T05:55:50.906Z,93958.23
2019-01-10T05:58:18.448Z,93961.97
2019-01-10T06:00:45.887Z,93958.94
2019-01-10T06:03:13.260Z,93962.19
2019-01-10T06:05:40.672Z,93964.08
2019-01-10T06:08:08.139Z,93958.01
2019-01-10T06:10:35.496Z,93965.23
2019-01-10T06:13:03.073Z,93969.80
2019-01-10T06:15:30.516Z,93978.59
2019-01-10T06:17:57.909Z,93988.85
2019-01-10T06:20:25.367Z,93985.81
2019-01-10T06:22:52.803Z,93991.20
2019-01-10T06:25:20.290Z,93989.81
2019-01-10T06:27:48.062Z,93991.45
2019-01-10T06:30:16.521Z,94004.42
2019-01-10T06:32:43.870Z,93997.75
2019-01-10T06:35:11.356Z,94000.09
2019-01-10T06:37:38.762Z,94003.81
2019-01-10T06:40:07.110Z,94002.67
2019-01-10T06:42:34.543Z,94015.53
2019-01-10T06:45:01.950Z,94011.89
2019-01-10T06:47:29.322Z,94018.56
2019-01-10T06:49:56.710Z,94016.00
2019-01-10T06:52:24.195Z,94022.53
2019-01-10T06:54:56.506Z,94025.36
2019-01-10T06:57:20.936Z,94023.11
2019-01-10T06:59:48.288Z,94029.08
2019-01-10T07:02:15.703Z,94029.32
2019-01-10T07:04:43.052Z,94036.22
2019-01-10T07:07:10.755Z,94037.05
2019-01-10T07:09:38.153Z,94036.00
2019-01-10T07:12:07.640Z,94044.52
2019-01-10T07:14:35.160Z,94049.19
2019-01-10T07:17:02.514Z,94049.66
2019-01-10T07:19:48.488Z,94054.59
2019-01-10T07:22:16.550Z,94046.16
2019-01-10T07:24:47.660Z,94050.63
2019-01-10T07:27:15.036Z,94049.44
2019-01-10T07:29:42.428Z,94048.63
2019-01-10T07:32:09.830Z,94044.76
2019-01-10T07:34:37.211Z,94046.41
2019-01-10T07:37:12.686Z,94055.52
2019-01-10T07:39:37.135Z,94056.91
2019-01-10T07:42:04.487Z,94058.91
2019-01-10T07:44:31.854Z,94054.70
2019-01-10T07:46:59.255Z,94061.48
2019-01-10T07:49:26.708Z,94064.42
2019-01-10T07:51:54.173Z,94066.06
2019-01-10T07:54:21.580Z,94075.17
2019-01-10T07:56:48.919Z,94076.56
2019-01-10T07:59:16.322Z,94080.32
2019-01-10T08:01:43.779Z,94086.65
2019-01-10T08:04:11.252Z,94079.14
2019-01-10T08:06:38.895Z,94086.40
2019-01-10T08:09:07.168Z,94092.97
2019-01-10T08:11:34.835Z,94094.59
2019-01-10T08:14:02.227Z,94092.37
2019-01-10T08:16:29.588Z,94097.16
2019-01-10T08:18:56.969Z,94099.27
2019-01-10T08:21:24.341Z,94100.19
2019-01-10T08:23:52.453Z,94104.05
2019-01-10T08:26:19.831Z,94104.05
2019-01-10T08:28:47.278Z,94108.05
2019-01-10T08:31:14.831Z,94108.52
2019-01-10T08:33:42.288Z,94118.67
2019-01-10T08:36:09.743Z,94118.21
2019-01-10T08:38:37.104Z,94113.20
2019-01-10T08:41:04.496Z,94119.95
2019-01-10T08:43:31.852Z,94113.53
2019-01-10T08:45:59.219Z,94112.84
2019-01-10T08:48:26.632Z,94120.80
2019-01-10T08:50:54.019Z,94122.58
2019-01-10T08:53:21.792Z,94121.50
2019-01-10T08:55:49.310Z,94118.93
2019-01-10T08:58:16.678Z,94126.44
2019-01-10T09:00:44.075Z,94130.88
2019-01-10T09:03:11.438Z,94123.15
2019-01-10T09:05:38.908Z,94125.26
2019-01-10T09:08:06.367Z,94130.88
2019-01-10T09:10:34.191Z,94129.94
2019-01-10T09:13:01.555Z,94128.30
2019-01-10T09:15:34.266Z,94130.50
2019-01-10T09:17:58.320Z,94134.03
2019-01-10T09:20:25.799Z,94129.66
2019-01-10T09:22:53.176Z,94129.90
2019-01-10T09:25:20.549Z,94134.36
2019-01-10T09:27:47.928Z,94131.44
2019-01-10T09:30:16.503Z,94137.39
2019-01-10T09:32:43.893Z,94134.93
2019-01-10T09:35:11.391Z,94145.59
2019-01-10T09:37:38.769Z,94149.58
2019-01-10T09:40:08.223Z,94155.20
2019-01-10T09:42:35.594Z,94150.52
2019-01-10T09:45:04.002Z,94140.65
2019-01-10T09:47:31.338Z,94159.88
2019-01-10T09:49:58.759Z,94159.41
2019-01-10T09:52:26.211Z,94158.02
2019-01-10T09:54:53.643Z,94165.73
2019-01-10T09:57:21.036Z,94166.09
2019-01-10T09:59:50.278Z,94165.05
2019-01-10T10:02:17.669Z,94176.19
2019-01-10T10:04:45.096Z,94176.30
2019-01-10T10:07:12.455Z,94175.11
2019-01-10T10:09:39.959Z,94172.78
2019-01-10T10:12:07.311Z,94174.07
2019-01-10T10:14:34.752Z,94171.59
2019-01-10T10:17:02.279Z,94174.62
2019-01-10T10:19:29.627Z,94178.13
2019-01-10T10:21:57.321Z,94173.31
2019-01-10T10:24:24.773Z,94178.37
2019-01-10T10:26:52.435Z,94181.20
2019-01-10T10:29:20.032Z,94177.20
2019-01-10T10:31:47.528Z,94181.67
2019-01-10T10:34:14.900Z,94189.88
2019-01-10T10:36:42.425Z,94190.69
2019-01-10T10:39:09.925Z,94186.44
2019-01-10T10:41:37.311Z,94187.47
2019-01-10T10:44:04.724Z,94191.94
2019-01-10T10:46:32.077Z,94182.54
2019-01-10T10:48:59.474Z,94183.91
2019-01-10T10:51:26.849Z,94189.84
2019-01-10T10:53:54.583Z,94195.22
2019-01-10T10:56:22.033Z,94188.45
2019-01-10T10:58:49.404Z,94181.86
2019-01-10T11:01:16.819Z,94192.63
2019-01-10T11:03:44.210Z,94188.17
2019-01-10T11:06:11.633Z,94184.32
2019-01-10T11:08:39.036Z,94191.11
2019-01-10T11:11:06.504Z,94189.94
2019-01-10T11:13:33.948Z,94189.13
2019-01-10T11:16:10.225Z,94189.50
2019-01-10T11:18:30.624Z,94186.66
2019-01-10T11:20:58.257Z,94185.16
2019-01-10T11:23:25.700Z,94181.30
2019-01-10T11:25:53.325Z,94183.17
2019-01-10T11:28:20.718Z,94184.59
2019-01-10T11:30:48.071Z,94183.95
2019-01-10T11:33:15.489Z,94181.66
2019-01-10T11:35:42.870Z,94188.45
2019-01-10T11:38:10.267Z,94185.75
2019-01-10T11:40:37.765Z,94189.61
2019-01-10T11:43:05.110Z,94182.81
2019-01-10T11:45:32.499Z,94188.20
2019-01-10T11:47:59.855Z,94188.55
2019-01-10T11:50:27.293Z,94180.38
2019-01-10T11:52:54.796Z,94177.80
2019-01-10T11:55:22.147Z,94181.53
2019-01-10T11:57:49.673Z,94183.77
2019-01-10T12:00:18.739Z,94182.33
2019-01-10T12:02:46.129Z,94180.23
2019-01-10T12:05:13.707Z,94173.87
2019-01-10T12:07:41.203Z,94178.94
2019-01-10T12:10:08.859Z,94174.83
2019-01-10T12:12:36.254Z,94173.23
2019-01-10T12:15:04.749Z,94174.14
2019-01-10T12:17:32.110Z,94172.50
2019-01-10T12:19:59.645Z,94168.63
2019-01-10T12:22:27.001Z,94167.14
2019-01-10T12:24:54.529Z,94167.82
2019-01-10T12:27:22.044Z,94167.36
2019-01-10T12:29:49.459Z,94168.31
2019-01-10T12:32:16.857Z,94161.87
2019-01-10T12:34:44.247Z,94167.49
2019-01-10T12:37:11.635Z,94163.35
2019-01-10T12:39:39.050Z,94159.84
2019-01-10T12:42:06.446Z,94165.45
2019-01-10T12:44:33.835Z,94161.36
2019-01-10T12:47:01.227Z,94158.33
2019-01-10T12:49:28.683Z,94164.66
2019-01-10T12:51:56.123Z,94159.29
2019-01-10T12:54:23.566Z,94160.36
2019-01-10T12:56:51.204Z,94163.96
2019-01-10T12:59:18.545Z,94156.48
2019-01-10T13:01:45.924Z,94162.45
2019-01-10T13:04:13.332Z,94162.22
2019-01-10T13:06:40.712Z,94166.89
2019-01-10T13:09:08.067Z,94171.56
2019-01-10T13:11:35.470Z,94173.46
2019-01-10T13:14:05.458Z,94172.50
2019-01-10T13:16:32.239Z,94175.81
2019-01-10T13:18:59.634Z,94181.33
2019-01-10T13:21:27.017Z,94173.47
2019-01-10T13:23:54.462Z,94183.30
2019-01-10T13:26:21.860Z,94185.52
2019-01-10T13:28:49.233Z,94179.69
2019-01-10T13:31:16.627Z,94180.25
2019-01-10T13:33:44.330Z,94185.50
2019-01-10T13:36:11.705Z,94189.27
2019-01-10T13:38:39.059Z,94188.23
2019-01-10T13:41:07.353Z,94184.12
2019-01-10T13:43:34.723Z,94190.55
2019-01-10T13:46:02.340Z,94189.17
2019-01-10T13:48:29.839Z,94189.38
2019-01-10T13:50:58.037Z,94188.70
2019-01-10T13:53:25.639Z,94189.38
2019-01-10T13:55:53.087Z,94189.52
2019-01-10T13:58:20.522Z,94191.28
2019-01-10T14:00:48.068Z,94199.00
2019-01-10T14:03:15.438Z,94199.22
2019-01-10T14:05:42.809Z,94201.11
2019-01-10T14:08:10.223Z,94196.43
2019-01-10T14:10:37.619Z,94203.08
2019-01-10T14:13:05.134Z,94200.40
2019-01-10T14:15:33.560Z,94199.00
2019-01-10T14:18:01.032Z,94203.08
2019-01-10T14:20:28.411Z,94203.33
2019-01-10T14:22:55.896Z,94206.01
2019-01-10T14:25:23.507Z,94205.80
2019-01-10T14:27:51.014Z,94204.14
2019-01-10T14:30:20.205Z,94205.54
2019-01-10T14:32:47.601Z,94209.75
2019-01-10T14:35:14.995Z,94206.57
2019-01-10T14:37:42.508Z,94214.55
2019-01-10T14:40:10.087Z,94208.22
2019-01-10T14:42:37.906Z,94207.87
2019-01-10T14:45:06.970Z,94209.64
2019-01-10T14:47:34.413Z,94213.97
2019-01-10T14:50:01.892Z,94214.17
2019-01-10T14:52:29.304Z,94210.23
2019-01-10T14:54:56.768Z,94218.89
2019-01-10T14:57:24.195Z,94215.37
2019-01-10T14:59:51.682Z,94221.45
2019-01-10T15:02:19.042Z,94227.16
2019-01-10T15:04:46.399Z,94231.28
2019-01-10T15:07:13.896Z,94231.19
2019-01-10T15:09:41.267Z,94239.73
2019-01-10T15:12:08.644Z,94234.13
2019-01-10T15:14:36.047Z,94238.53
2019-01-10T15:17:03.531Z,94236.52
2019-01-10T15:19:30.979Z,94240.97
2019-01-10T15:21:59.110Z,94241.41
2019-01-10T15:24:26.842Z,94241.54
2019-01-10T15:26:54.260Z,94250.64
2019-01-10T15:29:21.782Z,94249.80
2019-01-10T15:31:49.235Z,94239.17
2019-01-10T15:34:16.635Z,94242.44
2019-01-10T15:36:44.105Z,94244.29
2019-01-10T15:39:11.618Z,94254.82
2019-01-10T15:41:39.119Z,94250.88
2019-01-10T15:44:06.508Z,94257.88
2019-01-10T15:46:33.878Z,94260.00
2019-01-10T15:49:01.319Z,94262.22
2019-01-10T15:51:28.728Z,94260.00
2019-01-10T15:53:57.182Z,94262.34
2019-01-10T15:56:24.563Z,94268.38
2019-01-10T15:58:51.947Z,94264.22
2019-01-10T16:01:19.312Z,94264.33
2019-01-10T16:03:46.664Z,94271.23
2019-01-10T16:06:14.066Z,94267.24
2019-01-10T16:08:41.532Z,94267.24
2019-01-10T16:11:09.863Z,94261.00
2019-01-10T16:13:37.260Z,94267.79
2019-01-10T16:16:04.950Z,94267.89
2019-01-10T16:18:32.406Z,94273.44
2019-01-10T16:20:59.811Z,94271.19
2019-01-10T16:23:27.219Z,94271.11
2019-01-10T16:25:54.614Z,94277.05
2019-01-10T16:28:22.336Z,94274.00
2019-01-10T16:30:49.878Z,94277.17
2019-01-10T16:33:17.315Z,94277.30
2019-01-10T16:35:44.710Z,94279.95
2019-01-10T16:38:12.079Z,94287.34
2019-01-10T16:40:39.657Z,94290.61
2019-01-10T16:43:11.937Z,94296.03
2019-01-10T16:45:38.720Z,94298.13
2019-01-10T16:48:06.102Z,94293.63
2019-01-10T16:50:33.499Z,94290.36
2019-01-10T16:53:00.970Z,94293.42
2019-01-10T16:55:28.394Z,94294.68
2019-01-10T16:57:55.901Z,94294.68
2019-01-10T17:00:24.499Z,94300.21
2019-01-10T17:02:51.942Z,94300.42
2019-01-10T17:05:19.475Z,94305.52
2019-01-10T17:07:46.988Z,94313.66
2019-01-10T17:10:15.718Z,94309.01
2019-01-10T17:12:43.300Z,94299.42
2019-01-10T17:15:10.891Z,94307.88
2019-01-10T17:17:38.239Z,94312.30
2019-01-10T17:20:07.045Z,94315.08
2019-01-10T17:22:34.784Z,94314.98
2019-01-10T17:25:02.402Z,94317.16
2019-01-10T17:27:29.788Z,94324.34
2019-01-10T17:29:57.201Z,94328.17
2019-01-10T17:32:24.698Z,94319.89
2019-01-10T17:34:52.224Z,94327.32
2019-01-10T17:37:19.751Z,94325.38
2019-01-10T17:39:47.294Z,94328.17
2019-01-10T17:42:14.887Z,94334.48
2019-01-10T17:44:42.356Z,94326.86
2019-01-10T17:47:10.095Z,94331.23
2019-01-10T17:49:38.186Z,94332.16
2019-01-10T17:52:05.655Z,94326.38
2019-01-10T17:54:33.058Z,94335.09
2019-01-10T17:57:00.488Z,94336.13
2019-01-10T17:59:27.958Z,94340.64
2019-01-10T18:01:55.379Z,94340.61
2019-01-10T18:04:22.788Z,94344.97
2019-01-10T18:06:50.222Z,94339.63
2019-01-10T18:09:17.641Z,94345.33
2019-01-10T18:11:45.076Z,94344.77
2019-01-10T18:14:12.508Z,94351.92
2019-01-10T18:16:40.555Z,94350.11
2019-01-10T18:19:08.118Z,94342.06
2019-01-10T18:21:35.536Z,94353.90
2019-01-10T18:24:03.480Z,94347.04
2019-01-10T18:26:31.039Z,94352.13
2019-01-10T18:28:58.511Z,94357.76
2019-01-10T18:31:25.910Z,94361.75
2019-01-10T18:33:53.519Z,94363.13
2019-01-10T18:36:20.917Z,94359.83
2019-01-10T18:38:48.294Z,94362.41
2019-01-10T18:41:15.846Z,94368.83
2019-01-10T18:43:43.320Z,94373.84
2019-01-10T18:46:10.782Z,94373.84
2019-01-10T18:48:39.801Z,94375.39
2019-01-10T18:51:07.399Z,94373.61
2019-01-10T18:53:34.796Z,94379.91
2019-01-10T18:56:02.295Z,94378.55
2019-01-10T18:58:29.724Z,94382.52
2019-01-10T19:00:57.295Z,94375.76
2019-01-10T19:03:24.814Z,94380.91
2019-01-10T19:05:52.214Z,94382.91
2019-01-10T19:08:19.615Z,94382.49
2019-01-10T19:10:47.422Z,94388.30
2019-01-10T19:13:14.790Z,94386.55
2019-01-10T19:15:42.266Z,94384.39
2019-01-10T19:18:09.790Z,94394.06
2019-01-10T19:20:37.190Z,94391.52
2019-01-10T19:23:04.784Z,94389.20
2019-01-10T19:25:32.290Z,94397.92
2019-01-10T19:27:59.772Z,94391.55
2019-01-10T19:30:28.623Z,94390.77
2019-01-10T19:32:56.131Z,94391.05
2019-01-10T19:35:23.627Z,94395.93
2019-01-10T19:37:51.249Z,94389.54
2019-01-10T19:40:19.133Z,94392.53
2019-01-10T19:42:46.545Z,94396.75
2019-01-10T19:45:14.753Z,94396.25
2019-01-10T19:47:42.125Z,94394.59
2019-01-10T19:50:10.903Z,94402.26
2019-01-10T19:52:38.367Z,94396.47
2019-01-10T19:55:06.584Z,94402.31
2019-01-10T19:57:34.051Z,94395.83
2019-01-10T20:00:01.446Z,94403.85
2019-01-10T20:02:28.831Z,94400.15
2019-01-10T20:04:56.351Z,94407.54
2019-01-10T20:07:23.749Z,94409.52
2019-01-10T20:09:51.887Z,94412.48
2019-01-10T20:12:19.443Z,94410.39
2019-01-10T20:14:46.891Z,94410.53
2019-01-10T20:17:14.412Z,94412.06
2019-01-10T20:19:41.803Z,94408.77
2019-01-10T20:22:09.263Z,94413.48
2019-01-10T20:24:36.728Z,94411.40
2019-01-10T20:27:04.252Z,94412.69
2019-01-10T20:29:31.768Z,94415.56
2019-01-10T20:31:59.203Z,94413.19
2019-01-10T20:34:26.631Z,94418.78
2019-01-10T20:36:54.054Z,94418.86
2019-01-10T20:39:21.747Z,94411.77
2019-01-10T20:41:49.228Z,94415.06
2019-01-10T20:44:16.602Z,94416.58
2019-01-10T20:46:44.332Z,94411.98
2019-01-10T20:49:11.781Z,94414.91
2019-01-10T20:51:39.194Z,94420.48
2019-01-10T20:54:06.715Z,94421.70
2019-01-10T20:56:34.163Z,94420.55
2019-01-10T20:59:02.384Z,94423.13
2019-01-10T21:01:29.848Z,94427.35
2019-01-10T21:03:57.351Z,94422.20
2019-01-10T21:06:24.733Z,94421.65
2019-01-10T21:08:52.216Z,94425.08
2019-01-10T21:11:19.726Z,94426.53
2019-01-10T21:13:47.215Z,94425.34
2019-01-10T21:16:14.872Z,94429.08
2019-01-10T21:18:42.265Z,94430.39
2019-01-10T21:21:09.766Z,94429.80
2019-01-10T21:23:37.249Z,94436.80
2019-01-10T21:26:04.761Z,94433.00
2019-01-10T21:28:32.239Z,94435.30
2019-01-10T21:30:59.960Z,94439.42
2019-01-10T21:33:27.666Z,94446.93
2019-01-10T21:35:55.032Z,94443.52
2019-01-10T21:38:22.428Z,94444.49
2019-01-10T21:40:50.262Z,94437.94
2019-01-10T21:43:17.842Z,94444.49
2019-01-10T21:45:45.222Z,94436.33
2019-01-10T21:48:12.633Z,94433.22
2019-01-10T21:50:40.389Z,94439.09
2019-01-10T21:53:08.149Z,94446.20
2019-01-10T21:55:35.616Z,94449.50
2019-01-10T21:58:04.072Z,94438.42
2019-01-10T22:00:31.855Z,94439.66
2019-01-10T22:03:00.926Z,94442.33
2019-01-10T22:05:28.437Z,94440.64
2019-01-10T22:07:55.885Z,94440.36
2019-01-10T22:10:23.380Z,94438.63
2019-01-10T22:12:50.817Z,94439.13
2019-01-10T22:15:18.237Z,94439.27
2019-01-10T22:17:46.090Z,94437.48
2019-01-10T22:20:13.962Z,94439.55
2019-01-10T22:22:41.366Z,94435.95
2019-01-10T22:25:08.964Z,94434.38
2019-01-10T22:27:36.360Z,94437.14
2019-01-10T22:30:05.167Z,94437.42
2019-01-10T22:32:32.697Z,94435.06
2019-01-10T22:35:00.163Z,94438.14
2019-01-10T22:37:29.091Z,94429.65
2019-01-10T22:39:56.683Z,94436.30
2019-01-10T22:42:24.097Z,94440.21
2019-01-10T22:44:51.521Z,94437.91
2019-01-10T22:47:18.878Z,94443.59
2019-01-10T22:49:46.298Z,94437.09
2019-01-10T22:52:13.668Z,94438.87
2019-01-10T22:54:41.052Z,94439.52
2019-01-10T22:57:08.560Z,94437.77
2019-01-10T22:59:36.246Z,94436.50
2019-01-10T23:02:03.615Z,94434.14
2019-01-10T23:04:34.160Z,94438.77
2019-01-10T23:07:01.705Z,94435.16
2019-01-10T23:09:29.082Z,94432.30
2019-01-10T23:11:56.537Z,94431.41
2019-01-10T23:14:24.585Z,94438.05
2019-01-10T23:16:52.048Z,94441.67
2019-01-10T23:19:19.433Z,94440.29
2019-01-10T23:21:46.924Z,94437.94
2019-01-10T23:24:17.654Z,94431.64
2019-01-10T23:26:48.937Z,94427.66
2019-01-10T23:29:16.302Z,94421.70
2019-01-10T23:31:43.695Z,94427.27
2019-01-10T23:34:11.097Z,94418.55
2019-01-10T23:36:38.618Z,94424.28
2019-01-10T23:39:16.725Z,94432.92
2019-01-10T23:41:46.330Z,94427.14
2019-01-10T23:44:13.708Z,94416.48
2019-01-10T23:46:41.470Z,94418.78
2019-01-10T23:49:09.022Z,94421.63
2019-01-10T23:51:36.387Z,94420.06
2019-01-10T23:54:03.963Z,94427.08
2019-01-10T23:56:31.321Z,94423.63
2019-01-10T23:58:58.734Z,94423.98
